Time;durP1;ratioP1;P1;durP2;ratioP2;P2;SDS_P1;SDS_P2;PMS_P1;PMS_P2;Temp;Humidity;BMP_temperature;BMP_pressure;BME280_temperature;BME280_humidity;BME280_pressure;Samples;Min_cycle;Max_cycle;Signal;HPM_P1;HPM_P2
2024/04/07 00:08:55;;;;;;;;;;;14.10;99.90;;;;;;21161765;28;19922;-77
2024/04/07 00:18:56;;;;;;;;;;;14.30;99.90;;;;;;21152507;28;19916;-77
2024/04/07 00:28:57;;;;;;;;;;;14.00;99.90;;;;;;21180403;28;19969;-76
2024/04/07 00:38:57;;;;;;;;;;;13.90;99.90;;;;;;21179668;28;19947;-76
2024/04/07 00:48:58;;;;;;;;;;;13.70;99.90;;;;;;21179064;28;20382;-77
2024/04/07 00:58:59;;;;;;;;;;;13.40;99.90;;;;;;21178561;28;19918;-77
2024/04/07 01:09:00;;;;;;;;;;;13.40;99.90;;;;;;21174523;28;19958;-77
2024/04/07 01:19:00;;;;;;;;;;;13.40;99.90;;;;;;21170042;28;19915;-76
2024/04/07 01:29:01;;;;;;;;;;;13.40;99.90;;;;;;21168939;28;19919;-76
2024/04/07 01:39:02;;;;;;;;;;;13.30;99.90;;;;;;21167361;28;19916;-77
2024/04/07 01:49:02;;;;;;;;;;;13.30;99.90;;;;;;21166209;28;19923;-78
2024/04/07 01:59:03;;;;;;;;;;;13.30;99.90;;;;;;21182243;28;19987;-77
2024/04/07 02:09:06;;;;;;;;;;;13.40;99.90;;;;;;21177225;28;19916;-77
2024/04/07 02:19:11;;;;;;;;;;;13.60;99.90;;;;;;21084338;28;1859552;-78
2024/04/07 02:29:11;;;;;;;;;;;13.00;99.90;;;;;;21174920;28;19915;-75
2024/04/07 02:39:17;;;;;;;;;;;12.60;99.90;;;;;;21167628;28;19923;-77
2024/04/07 02:49:18;;;;;;;;;;;12.40;99.90;;;;;;21151852;28;19966;-76
2024/04/07 02:59:19;;;;;;;;;;;12.30;99.90;;;;;;21109406;28;19913;-78
2024/04/07 03:09:20;;;;;;;;;;;12.10;99.90;;;;;;21120591;28;20513;-77
2024/04/07 03:19:21;;;;;;;;;;;11.80;99.90;;;;;;21128160;28;19928;-77
2024/04/07 03:29:22;;;;;;;;;;;12.10;99.90;;;;;;21158592;28;19942;-77
2024/04/07 03:39:23;;;;;;;;;;;12.50;99.90;;;;;;21159963;28;19912;-77
2024/04/07 03:49:24;;;;;;;;;;;12.30;99.90;;;;;;21163243;28;19922;-77
2024/04/07 03:59:27;;;;;;;;;;;11.70;99.90;;;;;;21161370;28;19920;-76
2024/04/07 04:09:27;;;;;;;;;;;11.50;99.90;;;;;;21159070;28;19951;-76
2024/04/07 04:19:28;;;;;;;;;;;11.10;99.90;;;;;;21163256;28;19930;-75
2024/04/07 04:29:29;;;;;;;;;;;10.70;99.90;;;;;;21158499;28;19916;-77
2024/04/07 04:39:29;;;;;;;;;;;10.50;99.90;;;;;;21155399;28;20331;-76
2024/04/07 04:49:30;;;;;;;;;;;10.10;99.90;;;;;;21155838;28;19915;-76
2024/04/07 04:59:31;;;;;;;;;;;9.90;99.90;;;;;;21154516;28;20013;-77
2024/04/07 05:09:31;;;;;;;;;;;9.90;99.90;;;;;;21158611;28;19928;-77
2024/04/07 05:19:32;;;;;;;;;;;9.90;99.90;;;;;;21171636;28;20381;-77
2024/04/07 05:29:32;;;;;;;;;;;10.00;99.90;;;;;;21166822;28;19977;-77
2024/04/07 05:39:33;;;;;;;;;;;10.20;99.90;;;;;;21171173;28;19915;-75
2024/04/07 05:49:34;;;;;;;;;;;10.20;99.90;;;;;;21169548;28;19923;-77
2024/04/07 05:59:34;;;;;;;;;;;9.90;99.90;;;;;;21172024;28;19911;-78
2024/04/07 06:09:35;;;;;;;;;;;10.40;99.90;;;;;;21155100;28;19994;-77
2024/04/07 06:19:36;;;;;;;;;;;10.70;99.90;;;;;;21184359;28;19916;-78
2024/04/07 06:29:36;;;;;;;;;;;10.80;99.90;;;;;;21173737;28;19916;-77
2024/04/07 06:39:38;;;;;;;;;;;10.90;99.90;;;;;;21171641;28;19938;-78
2024/04/07 06:49:39;;;;;;;;;;;10.90;99.90;;;;;;21134896;28;19931;-77
2024/04/07 06:59:39;;;;;;;;;;;11.70;99.90;;;;;;21158837;28;19911;-78
2024/04/07 07:09:40;;;;;;;;;;;12.10;99.90;;;;;;21163563;28;19916;-77
2024/04/07 07:19:41;;;;;;;;;;;12.50;99.90;;;;;;21163038;28;19916;-77
2024/04/07 07:29:41;;;;;;;;;;;13.40;99.90;;;;;;21163846;28;20410;-77
2024/04/07 07:39:42;;;;;;;;;;;13.80;99.90;;;;;;21170770;28;19912;-76
2024/04/07 07:49:42;;;;;;;;;;;14.10;99.90;;;;;;21166752;28;20368;-77
2024/04/07 07:59:43;;;;;;;;;;;14.50;99.90;;;;;;21168484;28;19919;-78
2024/04/07 08:09:44;;;;;;;;;;;14.40;99.90;;;;;;21163954;28;19916;-77
2024/04/07 08:19:46;;;;;;;;;;;14.80;99.90;;;;;;21167218;28;19934;-77
2024/04/07 08:29:46;;;;;;;;;;;15.60;99.90;;;;;;21166620;28;20017;-78
2024/04/07 08:39:47;;;;;;;;;;;16.00;99.90;;;;;;21169055;28;19917;-77
2024/04/07 08:49:51;;;;;;;;;;;16.30;99.90;;;;;;21160451;28;19916;-77
2024/04/07 08:59:53;;;;;;;;;;;16.60;99.90;;;;;;21155316;28;19911;-76
2024/04/07 09:09:53;;;;;;;;;;;17.70;99.90;;;;;;21171629;28;19973;-77
2024/04/07 09:19:54;;;;;;;;;;;18.50;99.90;;;;;;21164472;28;19916;-73
2024/04/07 09:29:55;;;;;;;;;;;18.80;99.90;;;;;;21178770;28;20462;-77
2024/04/07 09:39:56;;;;;;;;;;;18.90;99.90;;;;;;21155312;28;19912;-77
2024/04/07 09:49:58;;;;;;;;;;;19.50;99.90;;;;;;21158674;28;20394;-77
2024/04/07 09:59:59;;;;;;;;;;;20.40;99.90;;;;;;21125669;28;20255;-77
2024/04/07 10:10:00;;;;;;;;;;;18.90;99.90;;;;;;21145255;28;19916;-77
2024/04/07 10:20:02;;;;;;;;;;;20.30;99.90;;;;;;21154849;28;19926;-77
2024/04/07 10:30:05;;;;;;;;;;;20.90;99.90;;;;;;21156745;28;20208;-76
2024/04/07 10:40:06;;;;;;;;;;;22.10;99.90;;;;;;21168982;28;19916;-77
2024/04/07 10:50:07;;;;;;;;;;;23.40;99.90;;;;;;21151591;28;19922;-78
2024/04/07 11:00:08;;;;;;;;;;;23.80;99.90;;;;;;21175574;28;20022;-78
2024/04/07 11:10:09;;;;;;;;;;;24.00;99.90;;;;;;21166636;28;20290;-77
2024/04/07 11:20:13;;;;;;;;;;;24.30;99.90;;;;;;21160916;28;19922;-78
2024/04/07 11:30:14;;;;;;;;;;;25.50;99.90;;;;;;21150244;28;19920;-77
2024/04/07 11:40:14;;;;;;;;;;;25.80;99.90;;;;;;21149369;28;19935;-77
2024/04/07 11:50:15;;;;;;;;;;;26.70;99.90;;;;;;21139507;28;19920;-77
2024/04/07 12:00:16;;;;;;;;;;;27.40;99.90;;;;;;21128745;28;19915;-77
2024/04/07 12:10:16;;;;;;;;;;;27.40;99.90;;;;;;21147241;28;19922;-77
2024/04/07 12:20:17;;;;;;;;;;;27.80;99.30;;;;;;21151612;28;19969;-77
2024/04/07 12:30:18;;;;;;;;;;;25.60;99.90;;;;;;21166692;28;19916;-76
2024/04/07 12:40:18;;;;;;;;;;;24.70;99.90;;;;;;21174537;28;19939;-77
2024/04/07 12:50:19;;;;;;;;;;;25.00;99.90;;;;;;21171745;28;19987;-77
2024/04/07 13:00:25;;;;;;;;;;;24.90;99.90;;;;;;21171655;28;20370;-77
2024/04/07 13:10:26;;;;;;;;;;;24.10;99.90;;;;;;21170270;28;19915;-77
2024/04/07 13:20:27;;;;;;;;;;;24.40;99.90;;;;;;21170609;28;19923;-77
2024/04/07 13:30:28;;;;;;;;;;;24.50;99.90;;;;;;21167956;28;19919;-77
2024/04/07 13:40:28;;;;;;;;;;;24.50;99.90;;;;;;21168925;28;19995;-77
2024/04/07 13:50:29;;;;;;;;;;;24.30;99.90;;;;;;21167830;28;20348;-76
2024/04/07 14:00:30;;;;;;;;;;;25.20;99.90;;;;;;21166797;28;19965;-76
2024/04/07 14:10:30;;;;;;;;;;;25.20;99.90;;;;;;21166897;28;19968;-77
2024/04/07 14:20:31;;;;;;;;;;;24.60;99.90;;;;;;21152089;28;19998;-77
2024/04/07 14:30:32;;;;;;;;;;;24.50;99.90;;;;;;21166457;28;19961;-77
2024/04/07 14:40:33;;;;;;;;;;;24.10;99.90;;;;;;21168441;28;19929;-77
2024/04/07 14:50:35;;;;;;;;;;;24.00;99.90;;;;;;21172671;28;19927;-77
2024/04/07 15:00:36;;;;;;;;;;;24.30;99.90;;;;;;21163545;28;19944;-76
2024/04/07 15:10:54;;;;;;;;;;;23.90;99.90;;;;;;21162050;28;20443;-77
2024/04/07 15:20:56;;;;;;;;;;;24.10;99.90;;;;;;21163999;28;19922;-78
2024/04/07 15:30:57;;;;;;;;;;;23.70;99.90;;;;;;21173168;28;20401;-78
2024/04/07 15:40:58;;;;;;;;;;;23.20;99.90;;;;;;21171929;28;19912;-77
2024/04/07 15:50:59;;;;;;;;;;;23.00;99.90;;;;;;21169579;28;19966;-78
2024/04/07 16:01:04;;;;;;;;;;;23.00;99.90;;;;;;21172777;28;19916;-77
2024/04/07 16:11:08;;;;;;;;;;;22.80;99.90;;;;;;21226401;28;20350;-76
2024/04/07 16:21:09;;;;;;;;;;;22.50;99.90;;;;;;21177742;28;19924;-77
2024/04/07 16:31:09;;;;;;;;;;;22.10;99.90;;;;;;21077147;28;20010;-77
2024/04/07 16:41:10;;;;;;;;;;;21.80;99.90;;;;;;21084308;28;20263;-76
2024/04/07 16:51:11;;;;;;;;;;;21.20;99.90;;;;;;21150996;28;19915;-77
2024/04/07 17:01:11;;;;;;;;;;;20.70;99.90;;;;;;21152671;28;19911;-77
2024/04/07 17:11:12;;;;;;;;;;;20.70;99.90;;;;;;21171966;28;20363;-77
2024/04/07 17:21:13;;;;;;;;;;;20.50;99.90;;;;;;21158080;28;19915;-76
2024/04/07 17:31:13;;;;;;;;;;;20.00;99.90;;;;;;21162749;28;19920;-76
2024/04/07 17:41:14;;;;;;;;;;;19.60;99.90;;;;;;21162403;28;20383;-76
2024/04/07 17:51:15;;;;;;;;;;;19.20;99.90;;;;;;21152694;28;19916;-77
2024/04/07 18:01:16;;;;;;;;;;;19.30;99.90;;;;;;21152446;28;20429;-76
2024/04/07 18:11:16;;;;;;;;;;;19.10;99.90;;;;;;21165529;28;19920;-76
2024/04/07 18:21:17;;;;;;;;;;;19.10;99.90;;;;;;21162307;28;20492;-76
2024/04/07 18:31:18;;;;;;;;;;;18.90;99.90;;;;;;21146276;28;19915;-76
2024/04/07 18:41:18;;;;;;;;;;;18.70;99.90;;;;;;21158125;28;19911;-77
2024/04/07 18:51:20;;;;;;;;;;;18.50;99.90;;;;;;21160476;28;19915;-77
2024/04/07 19:01:21;;;;;;;;;;;18.50;99.90;;;;;;21148263;28;20401;-77
2024/04/07 19:11:22;;;;;;;;;;;18.40;99.90;;;;;;21173837;28;19917;-78
2024/04/07 19:21:23;;;;;;;;;;;18.40;99.90;;;;;;21172966;28;19923;-78
2024/04/07 19:31:24;;;;;;;;;;;18.60;99.90;;;;;;21170669;28;19924;-78
2024/04/07 19:41:25;;;;;;;;;;;18.60;99.90;;;;;;21155114;28;19999;-77
2024/04/07 19:51:26;;;;;;;;;;;18.70;99.90;;;;;;21106310;28;19923;-78
2024/04/07 20:01:27;;;;;;;;;;;18.60;99.90;;;;;;21100576;28;20011;-77
2024/04/07 20:11:27;;;;;;;;;;;18.60;99.90;;;;;;21093916;28;19916;-78
2024/04/07 20:21:34;;;;;;;;;;;18.50;99.90;;;;;;21092318;28;19976;-76
2024/04/07 20:31:34;;;;;;;;;;;18.20;99.90;;;;;;21115961;28;19920;-77
2024/04/07 20:41:35;;;;;;;;;;;18.10;99.90;;;;;;21171568;28;19912;-78
2024/04/07 20:51:36;;;;;;;;;;;17.80;99.90;;;;;;21187471;28;20343;-78
2024/04/07 21:01:36;;;;;;;;;;;18.00;99.90;;;;;;21190393;28;19916;-78
2024/04/07 21:11:37;;;;;;;;;;;17.80;99.90;;;;;;21188639;28;19915;-78
2024/04/07 21:21:38;;;;;;;;;;;18.20;99.90;;;;;;21192454;28;19966;-78
2024/04/07 21:31:39;;;;;;;;;;;17.90;99.90;;;;;;21190496;28;19922;-78
2024/04/07 21:41:40;;;;;;;;;;;17.30;99.90;;;;;;21192184;28;19912;-78
2024/04/07 21:51:40;;;;;;;;;;;17.30;99.90;;;;;;21136295;28;19931;-78
2024/04/07 22:01:41;;;;;;;;;;;16.70;99.90;;;;;;21130278;28;20387;-78
2024/04/07 22:11:42;;;;;;;;;;;16.20;99.90;;;;;;21127501;28;20466;-78
2024/04/07 22:21:44;;;;;;;;;;;15.80;99.90;;;;;;21151982;28;19971;-78
2024/04/07 22:31:45;;;;;;;;;;;15.50;99.90;;;;;;21145796;28;20042;-78
2024/04/07 22:41:46;;;;;;;;;;;15.50;99.90;;;;;;21130596;28;19912;-78
2024/04/07 22:51:47;;;;;;;;;;;15.20;99.90;;;;;;21124271;28;19916;-79
2024/04/07 23:01:48;;;;;;;;;;;15.20;99.90;;;;;;21182725;28;19920;-78
2024/04/07 23:11:49;;;;;;;;;;;14.70;99.90;;;;;;21155130;28;19920;-77
2024/04/07 23:21:51;;;;;;;;;;;14.50;99.90;;;;;;21145846;28;19968;-77
2024/04/07 23:31:52;;;;;;;;;;;14.40;99.90;;;;;;21163168;28;19973;-77
2024/04/07 23:41:54;;;;;;;;;;;14.30;99.90;;;;;;21161265;28;19922;-77
2024/04/07 23:51:55;;;;;;;;;;;14.20;99.90;;;;;;21161142;28;20430;-77
